createdAt,value
2023-01-19T00:00:34.909Z,-0.52
2023-01-19T00:03:03.403Z,-0.69
2023-01-19T00:05:30.154Z,-1.02
2023-01-19T00:07:57.011Z,-1.38
2023-01-19T00:10:23.946Z,-0.75
2023-01-19T00:12:50.666Z,-0.73
2023-01-19T00:15:17.365Z,-0.78
2023-01-19T00:17:44.075Z,-0.77
2023-01-19T00:20:11.872Z,-0.83
2023-01-19T00:22:38.578Z,-1.56
2023-01-19T00:25:05.406Z,-1.73
2023-01-19T00:27:35.057Z,-0.89
2023-01-19T00:30:02.448Z,-0.86
2023-01-19T00:32:29.196Z,-0.97
2023-01-19T00:34:55.850Z,-0.89
2023-01-19T00:37:22.580Z,-1.10
2023-01-19T00:39:49.276Z,-1.04
2023-01-19T00:42:34.633Z,-1.35
2023-01-19T00:45:01.303Z,-1.12
2023-01-19T00:47:28.380Z,-1.13
2023-01-19T00:49:55.114Z,-1.42
2023-01-19T00:52:21.912Z,-2.18
2023-01-19T00:54:48.653Z,-1.24
2023-01-19T00:57:16.168Z,-1.70
2023-01-19T00:59:43.307Z,-1.74
2023-01-19T01:02:11.608Z,-1.40
2023-01-19T01:04:38.613Z,-1.39
2023-01-19T01:07:05.392Z,-1.43
2023-01-19T01:09:32.374Z,-1.47
2023-01-19T01:11:59.224Z,-1.55
2023-01-19T01:14:26.715Z,-1.55
2023-01-19T01:16:53.621Z,-1.61
2023-01-19T01:19:20.588Z,-3.07
2023-01-19T01:21:47.365Z,-1.67
2023-01-19T01:24:14.048Z,-1.72
2023-01-19T01:26:40.737Z,-1.75
2023-01-19T01:29:08.472Z,-1.82
2023-01-19T01:31:35.286Z,-2.34
2023-01-19T01:34:02.061Z,-2.61
2023-01-19T01:36:32.169Z,-1.94
2023-01-19T01:38:59.465Z,-2.17
2023-01-19T01:41:27.552Z,-2.02
2023-01-19T01:44:00.102Z,-2.06
2023-01-19T01:46:28.995Z,-2.25
2023-01-19T01:49:10.677Z,-2.12
2023-01-19T01:51:53.541Z,-2.74
2023-01-19T01:54:23.184Z,-2.31
2023-01-19T01:56:52.979Z,-2.23
2023-01-19T01:59:26.364Z,-2.23
2023-01-19T02:02:14.657Z,-2.25
2023-01-19T02:04:52.265Z,-2.49
2023-01-19T02:07:48.729Z,-2.39
2023-01-19T02:10:33.964Z,-2.25
2023-01-19T02:13:21.847Z,-2.25
2023-01-19T02:15:57.889Z,-2.26
2023-01-19T02:18:28.322Z,-3.06
2023-01-19T02:21:24.065Z,-2.47
2023-01-19T02:23:51.951Z,-2.41
2023-01-19T02:26:22.372Z,-2.40
2023-01-19T02:29:04.766Z,-2.41
2023-01-19T02:31:33.557Z,-3.67
2023-01-19T02:34:02.560Z,-2.46
2023-01-19T02:36:35.680Z,-2.74
2023-01-19T02:39:04.538Z,-2.50
2023-01-19T02:41:36.526Z,-3.69
2023-01-19T02:44:06.176Z,-2.57
2023-01-19T02:46:33.326Z,-2.61
2023-01-19T02:49:01.712Z,-2.64
2023-01-19T02:51:32.296Z,-2.70
2023-01-19T02:54:04.795Z,-2.71
2023-01-19T02:56:37.309Z,-2.73
2023-01-19T02:59:14.842Z,-2.77
2023-01-19T03:02:09.422Z,-2.80
2023-01-19T03:05:00.962Z,-2.81
2023-01-19T03:07:52.692Z,-2.83
2023-01-19T03:10:34.514Z,-2.85
2023-01-19T03:13:31.233Z,-3.91
2023-01-19T03:16:09.539Z,-2.91
2023-01-19T03:18:38.733Z,-2.94
2023-01-19T03:21:07.707Z,-2.98
2023-01-19T03:23:38.769Z,-3.00
2023-01-19T03:26:09.795Z,-3.05
2023-01-19T03:28:40.229Z,-3.07
2023-01-19T03:31:17.289Z,-3.55
2023-01-19T03:33:50.020Z,-3.12
2023-01-19T03:38:58.589Z,-3.17
2023-01-19T03:41:28.435Z,-3.19
2023-01-19T03:43:56.898Z,-3.18
2023-01-19T03:46:26.263Z,-3.19
2023-01-19T03:48:53.449Z,-3.66
2023-01-19T03:51:21.767Z,-3.23
2023-01-19T03:53:50.099Z,-3.26
2023-01-19T03:56:22.677Z,-5.03
2023-01-19T03:58:49.793Z,-3.31
2023-01-19T04:01:17.766Z,-3.31
2023-01-19T04:03:44.601Z,-3.50
2023-01-19T04:06:11.462Z,-3.54
2023-01-19T04:08:38.139Z,-4.33
2023-01-19T04:11:05.000Z,-3.46
2023-01-19T04:13:31.756Z,-3.65
2023-01-19T04:16:03.285Z,-3.53
2023-01-19T04:18:33.724Z,-3.59
2023-01-19T04:21:02.045Z,-3.82
2023-01-19T04:23:28.904Z,-3.67
2023-01-19T04:25:59.601Z,-4.75
2023-01-19T04:28:27.386Z,-4.87
2023-01-19T04:30:54.716Z,-4.34
2023-01-19T04:33:22.589Z,-3.77
2023-01-19T04:35:52.259Z,-4.24
2023-01-19T04:38:20.660Z,-3.81
2023-01-19T04:40:49.258Z,-5.62
2023-01-19T04:43:16.155Z,-3.98
2023-01-19T04:45:44.831Z,-4.78
2023-01-19T04:48:12.785Z,-4.35
2023-01-19T04:50:39.920Z,-3.96
2023-01-19T04:53:06.593Z,-4.02
2023-01-19T04:55:33.511Z,-4.08
2023-01-19T04:58:00.588Z,-4.10
2023-01-19T05:00:28.261Z,-4.11
2023-01-19T05:02:55.002Z,-4.27
2023-01-19T05:05:21.805Z,-4.11
2023-01-19T05:07:48.519Z,-4.20
2023-01-19T05:10:15.363Z,-4.04
2023-01-19T05:12:42.346Z,-4.05
2023-01-19T05:15:10.032Z,-5.03
2023-01-19T05:17:37.119Z,-4.04
2023-01-19T05:20:04.709Z,-4.02
2023-01-19T05:22:31.676Z,-4.57
2023-01-19T05:24:58.510Z,-4.21
2023-01-19T05:27:25.202Z,-3.96
2023-01-19T05:29:52.113Z,-3.96
2023-01-19T05:32:18.804Z,-4.73
2023-01-19T05:34:45.506Z,-4.24
2023-01-19T05:37:12.209Z,-4.10
2023-01-19T05:39:38.878Z,-3.97
2023-01-19T05:42:05.694Z,-3.98
2023-01-19T05:44:32.389Z,-4.00
2023-01-19T05:46:59.197Z,-4.02
2023-01-19T05:49:25.963Z,-4.94
2023-01-19T05:51:52.649Z,-4.44
2023-01-19T05:54:19.328Z,-4.08
2023-01-19T05:56:46.104Z,-4.11
2023-01-19T05:59:12.846Z,-4.28
2023-01-19T06:01:40.324Z,-5.11
2023-01-19T06:04:10.258Z,-4.33
2023-01-19T06:06:36.938Z,-5.53
2023-01-19T06:09:03.699Z,-4.27
2023-01-19T06:11:30.406Z,-4.29
2023-01-19T06:13:57.165Z,-4.45
2023-01-19T06:16:23.878Z,-4.47
2023-01-19T06:18:50.634Z,-4.47
2023-01-19T06:21:17.369Z,-4.39
2023-01-19T06:23:44.792Z,-4.42
2023-01-19T06:26:11.720Z,-4.57
2023-01-19T06:28:38.418Z,-5.61
2023-01-19T06:31:05.520Z,-5.04
2023-01-19T06:33:32.265Z,-4.64
2023-01-19T06:35:58.997Z,-4.51
2023-01-19T06:38:26.073Z,-4.93
2023-01-19T06:41:02.716Z,-4.63
2023-01-19T06:43:29.820Z,-5.49
2023-01-19T06:45:56.556Z,-4.70
2023-01-19T06:48:23.737Z,-4.85
2023-01-19T06:50:50.493Z,-5.15
2023-01-19T06:53:17.376Z,-4.56
2023-01-19T06:55:44.472Z,-4.52
2023-01-19T06:58:11.804Z,-4.46
2023-01-19T07:00:38.605Z,-5.49
2023-01-19T07:03:09.166Z,-4.34
2023-01-19T07:05:36.713Z,-4.27
2023-01-19T07:08:04.034Z,-4.17
2023-01-19T07:11:24.658Z,-4.10
2023-01-19T07:13:17.817Z,-4.89
2023-01-19T07:15:44.616Z,-3.89
2023-01-19T07:18:11.378Z,-4.78
2023-01-19T07:20:38.500Z,-4.61
2023-01-19T07:23:05.183Z,-3.76
2023-01-19T07:25:32.146Z,-4.58
2023-01-19T07:27:59.747Z,-3.56
2023-01-19T07:30:27.000Z,-5.21
2023-01-19T07:32:58.600Z,-5.18
2023-01-19T07:35:26.062Z,-3.57
2023-01-19T07:37:52.976Z,-3.33
2023-01-19T07:40:19.744Z,-4.62
2023-01-19T07:42:48.677Z,-3.19
2023-01-19T07:45:17.418Z,-3.17
2023-01-19T07:47:51.837Z,-3.39
2023-01-19T07:50:21.449Z,-2.98
2023-01-19T07:52:50.749Z,-3.01
2023-01-19T07:55:17.670Z,-3.02
2023-01-19T07:57:44.370Z,-2.74
2023-01-19T08:00:11.659Z,-2.73
2023-01-19T08:02:41.789Z,-2.74
2023-01-19T08:05:09.037Z,-4.10
2023-01-19T08:07:35.820Z,-2.39
2023-01-19T08:10:02.476Z,-2.49
2023-01-19T08:12:29.635Z,-2.52
2023-01-19T08:14:56.320Z,-2.17
2023-01-19T08:17:22.990Z,-2.19
2023-01-19T08:19:49.724Z,-2.18
2023-01-19T08:22:16.577Z,-2.56
2023-01-19T08:24:43.319Z,-1.88
2023-01-19T08:27:10.099Z,-1.98
2023-01-19T08:29:37.061Z,-2.49
2023-01-19T08:32:04.068Z,-1.77
2023-01-19T08:34:31.120Z,-2.71
2023-01-19T08:36:58.711Z,-2.68
2023-01-19T08:39:28.314Z,-1.63
2023-01-19T08:41:55.248Z,-1.57
2023-01-19T08:44:22.127Z,-1.64
2023-01-19T08:46:48.881Z,-2.29
2023-01-19T08:49:15.965Z,-2.36
2023-01-19T08:51:46.955Z,-1.36
2023-01-19T08:54:14.171Z,-1.33
2023-01-19T08:56:41.016Z,-1.27
2023-01-19T08:59:10.083Z,-1.25
2023-01-19T09:01:37.943Z,-2.31
2023-01-19T09:04:05.001Z,-1.10
2023-01-19T09:06:32.767Z,-1.14
2023-01-19T09:08:59.786Z,-2.22
2023-01-19T09:11:30.055Z,-0.91
2023-01-19T09:13:56.792Z,-0.85
2023-01-19T09:16:23.593Z,-1.74
2023-01-19T09:18:50.306Z,-0.79
2023-01-19T09:21:17.054Z,-0.63
2023-01-19T09:23:43.844Z,-2.34
2023-01-19T09:26:10.918Z,-0.46
2023-01-19T09:28:38.345Z,-0.36
2023-01-19T09:31:07.743Z,-0.38
2023-01-19T09:33:35.241Z,-1.20
2023-01-19T09:36:02.339Z,-0.31
2023-01-19T09:38:32.782Z,-1.05
2023-01-19T09:41:00.545Z,-0.92
2023-01-19T09:43:42.182Z,-0.25
2023-01-19T09:46:14.353Z,-0.94
2023-01-19T09:48:48.005Z,0.06
2023-01-19T09:51:28.302Z,0.02
2023-01-19T09:54:15.992Z,0.12
2023-01-19T09:56:44.598Z,0.15
2023-01-19T09:59:21.099Z,-0.03
2023-01-19T10:02:12.538Z,0.11
2023-01-19T10:04:44.630Z,0.14
2023-01-19T10:07:32.591Z,0.12
2023-01-19T10:10:08.418Z,0.05
2023-01-19T10:12:35.037Z,-0.06
2023-01-19T10:15:39.336Z,0.07
2023-01-19T10:18:17.981Z,0.22
2023-01-19T10:21:15.348Z,-0.68
2023-01-19T10:24:08.334Z,0.36
2023-01-19T10:26:43.768Z,0.25
2023-01-19T10:29:25.969Z,-0.36
2023-01-19T10:32:01.827Z,0.58
2023-01-19T10:34:28.617Z,0.59
2023-01-19T10:37:04.806Z,0.68
2023-01-19T10:39:31.903Z,0.61
2023-01-19T10:42:02.477Z,0.63
2023-01-19T10:44:35.155Z,0.73
2023-01-19T10:47:02.481Z,0.75
2023-01-19T10:49:29.192Z,0.31
2023-01-19T10:52:00.022Z,0.69
2023-01-19T10:54:30.239Z,0.91
2023-01-19T10:56:59.397Z,1.05
2023-01-19T10:59:51.136Z,1.13
2023-01-19T11:02:27.716Z,-0.55
2023-01-19T11:05:21.643Z,1.18
2023-01-19T11:07:48.337Z,1.37
2023-01-19T11:10:17.898Z,1.38
2023-01-19T11:12:54.687Z,1.42
2023-01-19T11:15:24.445Z,1.52
2023-01-19T11:17:52.884Z,1.49
2023-01-19T11:20:29.451Z,1.62
2023-01-19T11:23:18.687Z,1.74
2023-01-19T11:25:48.472Z,1.72
2023-01-19T11:28:32.866Z,1.78
2023-01-19T11:30:59.583Z,1.76
2023-01-19T11:33:43.471Z,1.87
2023-01-19T11:36:26.777Z,1.91
2023-01-19T11:38:56.122Z,1.93
2023-01-19T11:41:35.487Z,1.06
2023-01-19T11:44:29.934Z,2.03
2023-01-19T11:46:59.982Z,1.98
2023-01-19T11:49:51.572Z,1.96
2023-01-19T11:52:27.203Z,1.90
2023-01-19T11:54:56.730Z,1.85
2023-01-19T11:57:23.628Z,1.44
2023-01-19T11:59:50.949Z,1.66
2023-01-19T12:02:30.650Z,1.56
2023-01-19T12:05:04.836Z,1.71
2023-01-19T12:07:35.455Z,1.66
2023-01-19T12:10:25.534Z,1.75
2023-01-19T12:12:53.399Z,1.86
2023-01-19T12:15:35.757Z,1.91
2023-01-19T12:18:05.158Z,1.78
2023-01-19T12:20:37.963Z,1.87
2023-01-19T12:23:10.754Z,1.94
2023-01-19T12:25:55.631Z,2.03
2023-01-19T12:28:32.754Z,2.08
2023-01-19T12:31:02.656Z,1.66
2023-01-19T12:33:29.357Z,1.91
2023-01-19T12:36:00.887Z,1.93
2023-01-19T12:38:43.376Z,1.97
2023-01-19T12:41:27.743Z,1.30
2023-01-19T12:44:09.937Z,2.03
2023-01-19T12:46:47.938Z,2.07
2023-01-19T12:49:31.281Z,1.96
2023-01-19T12:52:10.141Z,1.84
2023-01-19T12:54:37.821Z,1.76
2023-01-19T12:57:16.879Z,1.82
2023-01-19T12:59:43.885Z,1.72
2023-01-19T13:02:42.378Z,1.64
2023-01-19T13:05:15.147Z,1.59
2023-01-19T13:08:03.386Z,1.52
2023-01-19T13:11:09.606Z,1.43
2023-01-19T13:13:36.880Z,1.51
2023-01-19T13:16:18.878Z,1.46
2023-01-19T13:18:50.514Z,0.79
2023-01-19T13:21:30.871Z,1.07
2023-01-19T13:24:03.750Z,0.58
2023-01-19T13:26:38.525Z,1.36
2023-01-19T13:29:15.953Z,1.30
2023-01-19T13:31:49.098Z,1.32
2023-01-19T13:34:23.009Z,0.67
2023-01-19T13:36:59.264Z,1.59
2023-01-19T13:39:44.240Z,1.51
2023-01-19T13:42:30.473Z,1.59
2023-01-19T13:45:05.612Z,1.61
2023-01-19T13:47:49.164Z,1.50
2023-01-19T13:50:20.286Z,1.53
2023-01-19T13:52:48.901Z,1.52
2023-01-19T13:55:16.029Z,0.99
2023-01-19T13:57:45.497Z,0.86
2023-01-19T14:00:12.498Z,1.51
2023-01-19T14:02:42.242Z,1.16
2023-01-19T14:05:15.787Z,1.60
2023-01-19T14:07:42.553Z,1.36
2023-01-19T14:10:15.050Z,1.45
2023-01-19T14:12:58.222Z,0.63
2023-01-19T14:15:26.140Z,1.62
2023-01-19T14:18:11.333Z,1.55
2023-01-19T14:20:38.641Z,1.39
2023-01-19T14:23:06.975Z,0.39
2023-01-19T14:25:36.171Z,1.56
2023-01-19T14:28:28.459Z,1.64
2023-01-19T14:30:57.259Z,1.65
2023-01-19T14:33:58.520Z,1.66
2023-01-19T14:36:36.304Z,1.67
2023-01-19T14:39:04.264Z,1.67
2023-01-19T14:41:36.778Z,1.69
2023-01-19T14:44:09.118Z,1.78
2023-01-19T14:46:36.199Z,1.80
2023-01-19T14:49:06.056Z,1.77
2023-01-19T14:51:33.061Z,1.18
2023-01-19T14:54:01.938Z,1.63
2023-01-19T14:56:31.482Z,1.73
2023-01-19T14:58:59.713Z,1.65
2023-01-19T15:01:31.304Z,0.96
2023-01-19T15:03:58.558Z,1.79
2023-01-19T15:06:26.639Z,1.81
2023-01-19T15:08:54.361Z,1.76
2023-01-19T15:11:29.885Z,1.76
2023-01-19T15:13:56.714Z,0.84
2023-01-19T15:16:26.002Z,1.52
2023-01-19T15:18:52.690Z,0.66
2023-01-19T15:21:23.189Z,1.22
2023-01-19T15:23:50.553Z,1.37
2023-01-19T15:26:19.449Z,1.33
2023-01-19T15:28:48.786Z,1.27
2023-01-19T15:31:18.059Z,1.22
2023-01-19T15:33:45.348Z,1.18
2023-01-19T15:36:18.419Z,1.15
2023-01-19T15:38:45.725Z,1.12
2023-01-19T15:41:14.546Z,1.13
2023-01-19T15:43:41.321Z,0.88
2023-01-19T15:46:11.616Z,0.99
2023-01-19T15:48:38.343Z,0.96
2023-01-19T15:51:12.399Z,1.04
2023-01-19T15:53:40.407Z,0.82
2023-01-19T15:56:11.815Z,0.03
2023-01-19T15:58:38.499Z,0.96
2023-01-19T16:01:05.404Z,-0.09
2023-01-19T16:03:32.127Z,0.62
2023-01-19T16:06:01.895Z,0.68
2023-01-19T16:08:28.929Z,-0.03
2023-01-19T16:10:55.662Z,0.69
2023-01-19T16:13:22.376Z,0.71
2023-01-19T16:29:11.012Z,0.60
2023-01-19T16:31:39.132Z,0.98
2023-01-19T16:34:06.089Z,0.91
2023-01-19T16:36:35.034Z,-0.18
2023-01-19T16:39:13.769Z,0.75
2023-01-19T16:41:40.898Z,0.65
2023-01-19T16:44:09.710Z,0.59
2023-01-19T16:46:40.201Z,-0.43
2023-01-19T16:49:15.303Z,0.41
2023-01-19T16:51:42.269Z,0.34
2023-01-19T16:54:13.469Z,0.24
2023-01-19T16:56:40.167Z,-0.02
2023-01-19T16:59:07.040Z,0.06
2023-01-19T17:01:33.923Z,-0.01
2023-01-19T17:04:00.671Z,-0.19
2023-01-19T17:06:30.231Z,-0.17
2023-01-19T17:08:57.596Z,-0.24
2023-01-19T17:11:27.032Z,-0.32
2023-01-19T17:13:54.942Z,-1.54
2023-01-19T17:16:23.081Z,-0.45
2023-01-19T17:18:50.321Z,-0.73
2023-01-19T17:21:18.103Z,-0.57
2023-01-19T17:23:47.719Z,-0.63
2023-01-19T17:26:15.481Z,-0.69
2023-01-19T17:28:42.668Z,-0.72
2023-01-19T17:31:18.741Z,-0.78
2023-01-19T17:33:47.346Z,-0.80
2023-01-19T17:36:20.501Z,-0.85
2023-01-19T17:38:47.167Z,-1.03
2023-01-19T17:41:26.219Z,-0.94
2023-01-19T17:43:53.530Z,-1.02
2023-01-19T17:46:23.325Z,-1.27
2023-01-19T17:49:03.914Z,-1.26
2023-01-19T17:51:31.171Z,-1.18
2023-01-19T17:53:58.561Z,-1.23
2023-01-19T17:56:29.587Z,-1.29
2023-01-19T17:58:57.691Z,-2.25
2023-01-19T18:01:30.484Z,-1.33
2023-01-19T18:03:58.352Z,-1.40
2023-01-19T18:06:25.095Z,-1.60
2023-01-19T18:08:52.650Z,-1.41
2023-01-19T18:11:20.824Z,-1.42
2023-01-19T18:13:49.185Z,-2.04
2023-01-19T18:16:19.338Z,-1.43
2023-01-19T18:18:46.509Z,-1.43
2023-01-19T18:21:14.895Z,-1.56
2023-01-19T18:23:46.014Z,-1.69
2023-01-19T18:26:18.670Z,-1.51
2023-01-19T18:28:45.869Z,-2.81
2023-01-19T18:31:16.149Z,-1.55
2023-01-19T18:33:43.033Z,-1.92
2023-01-19T18:36:10.590Z,-1.66
2023-01-19T18:38:39.211Z,-1.56
2023-01-19T18:41:08.848Z,-2.66
2023-01-19T18:43:35.746Z,-1.67
2023-01-19T18:46:02.754Z,-1.45
2023-01-19T18:48:29.742Z,-1.41
2023-01-19T18:50:56.664Z,-1.35
2023-01-19T18:53:23.954Z,-1.39
2023-01-19T18:55:58.710Z,-1.21
2023-01-19T18:58:28.625Z,-1.15
2023-01-19T19:00:56.260Z,-1.09
2023-01-19T19:03:23.454Z,-1.15
2023-01-19T19:05:50.322Z,-0.98
2023-01-19T19:08:17.046Z,-0.95
2023-01-19T19:10:44.025Z,-2.11
2023-01-19T19:13:13.285Z,-0.86
2023-01-19T19:15:40.174Z,-1.15
2023-01-19T19:18:09.015Z,-1.54
2023-01-19T19:20:39.311Z,-1.75
2023-01-19T19:23:06.142Z,-2.22
2023-01-19T19:25:33.155Z,-0.67
2023-01-19T19:27:59.851Z,-0.67
2023-01-19T19:30:26.875Z,-0.61
2023-01-19T19:32:56.069Z,-0.58
2023-01-19T19:35:23.831Z,-0.70
2023-01-19T19:37:51.534Z,-0.55
2023-01-19T19:40:18.327Z,-0.52
2023-01-19T19:42:45.136Z,-1.11
2023-01-19T19:45:12.343Z,-0.71
2023-01-19T19:47:39.049Z,-1.36
2023-01-19T19:50:06.009Z,-0.45
2023-01-19T19:52:38.043Z,-0.41
2023-01-19T19:55:06.586Z,-1.16
2023-01-19T19:57:33.301Z,-0.37
2023-01-19T19:59:59.970Z,-0.32
2023-01-19T20:02:26.680Z,-0.78
2023-01-19T20:04:53.620Z,-1.04
2023-01-19T20:07:20.299Z,-1.21
2023-01-19T20:09:47.427Z,-1.05
2023-01-19T20:12:14.148Z,-0.27
2023-01-19T20:14:40.932Z,-0.16
2023-01-19T20:17:07.631Z,-0.14
2023-01-19T20:19:34.329Z,-0.13
2023-01-19T20:22:00.952Z,-0.99
2023-01-19T20:24:28.060Z,-0.12
2023-01-19T20:26:56.328Z,-0.96
2023-01-19T20:29:23.319Z,-0.23
2023-01-19T20:31:55.521Z,-0.35
2023-01-19T20:34:25.528Z,-0.10
2023-01-19T20:36:53.967Z,-0.09
2023-01-19T20:39:22.779Z,-0.07
2023-01-19T20:41:51.364Z,-0.08
2023-01-19T20:44:23.675Z,-0.04
2023-01-19T20:46:52.676Z,-0.05
2023-01-19T20:49:19.745Z,-0.07
2023-01-19T20:51:47.062Z,-0.06
2023-01-19T20:54:16.009Z,-0.01
2023-01-19T20:56:42.717Z,-0.50
2023-01-19T20:59:11.408Z,-0.02
2023-01-19T21:01:39.026Z,-0.07
2023-01-19T21:04:05.882Z,-0.05
2023-01-19T21:06:33.124Z,-0.02
2023-01-19T21:08:59.844Z,0.10
2023-01-19T21:11:26.925Z,-0.21
2023-01-19T21:13:56.250Z,0.06
2023-01-19T21:16:24.382Z,-0.92
2023-01-19T21:18:51.308Z,0.20
2023-01-19T21:21:29.850Z,0.18
2023-01-19T21:23:59.204Z,0.16
2023-01-19T21:26:26.107Z,0.14
2023-01-19T21:28:52.926Z,0.17
2023-01-19T21:31:22.669Z,-0.65
2023-01-19T21:33:53.413Z,0.12
2023-01-19T21:36:21.287Z,0.05
2023-01-19T21:38:48.412Z,0.15
2023-01-19T21:41:16.388Z,-0.14
2023-01-19T21:43:43.520Z,0.07
2023-01-19T21:46:20.710Z,0.13
2023-01-19T21:48:47.916Z,0.16
2023-01-19T21:51:15.751Z,0.16
2023-01-19T21:53:43.563Z,0.19
2023-01-19T21:56:11.318Z,0.20
2023-01-19T21:58:38.447Z,0.07
2023-01-19T22:01:10.840Z,0.22
2023-01-19T22:03:37.823Z,0.24
2023-01-19T22:06:06.387Z,0.13
2023-01-19T22:08:33.591Z,-0.06
2023-01-19T22:11:05.294Z,-0.18
2023-01-19T22:13:33.290Z,0.26
2023-01-19T22:16:04.295Z,0.15
2023-01-19T22:18:31.042Z,0.28
2023-01-19T22:21:36.188Z,0.18
2023-01-19T22:24:04.584Z,0.31
2023-01-19T22:26:34.099Z,0.31
2023-01-19T22:29:03.167Z,0.32
2023-01-19T22:31:30.942Z,0.35
2023-01-19T22:33:58.016Z,0.35
2023-01-19T22:36:25.859Z,0.22
2023-01-19T22:38:53.718Z,0.31
2023-01-19T22:41:29.577Z,0.31
2023-01-19T22:43:58.445Z,-0.07
2023-01-19T22:46:27.892Z,-0.01
2023-01-19T22:48:55.409Z,0.27
2023-01-19T22:51:23.550Z,0.03
2023-01-19T22:53:50.714Z,0.28
2023-01-19T22:56:21.758Z,0.30
2023-01-19T22:58:49.283Z,0.18
2023-01-19T23:01:19.411Z,0.20
2023-01-19T23:03:46.431Z,0.18
2023-01-19T23:06:16.486Z,-0.09
2023-01-19T23:08:43.740Z,-0.13
2023-01-19T23:11:15.995Z,-0.09
2023-01-19T23:13:43.152Z,-0.05
2023-01-19T23:16:10.784Z,0.03
2023-01-19T23:18:38.177Z,-0.17
2023-01-19T23:21:11.007Z,0.06
2023-01-19T23:23:38.421Z,-0.75
2023-01-19T23:26:10.607Z,0.09
2023-01-19T23:28:38.043Z,-0.66
2023-01-19T23:31:22.548Z,0.19
2023-01-19T23:33:50.884Z,0.22
2023-01-19T23:36:18.699Z,0.15
2023-01-19T23:38:53.912Z,0.22
2023-01-19T23:41:21.231Z,-0.75
2023-01-19T23:43:47.927Z,0.23
2023-01-19T23:46:15.727Z,0.23
2023-01-19T23:48:42.626Z,0.23
2023-01-19T23:51:12.686Z,0.24
2023-01-19T23:53:39.812Z,0.23
2023-01-19T23:56:26.189Z,0.23
2023-01-19T23:58:55.570Z,0.23
